sensor_id;sensor_type;location;lat;lon;timestamp;P1;durP1;ratioP1;P2;durP2;ratioP2
12129;SDS011;6128;59.340;18.040;2022-10-16T00:00:48;14.50;;;13.20;;
12129;SDS011;6128;59.340;18.040;2022-10-16T00:03:15;13.00;;;11.90;;
12129;SDS011;6128;59.340;18.040;2022-10-16T00:05:43;12.03;;;10.93;;
12129;SDS011;6128;59.340;18.040;2022-10-16T00:08:11;12.63;;;11.57;;
12129;SDS011;6128;59.340;18.040;2022-10-16T00:10:40;11.93;;;10.87;;
12129;SDS011;6128;59.340;18.040;2022-10-16T00:13:07;11.00;;;10.07;;
12129;SDS011;6128;59.340;18.040;2022-10-16T00:15:35;12.10;;;11.00;;
12129;SDS011;6128;59.340;18.040;2022-10-16T00:18:04;11.97;;;10.93;;
12129;SDS011;6128;59.340;18.040;2022-10-16T00:20:33;11.77;;;10.77;;
12129;SDS011;6128;59.340;18.040;2022-10-16T00:23:02;11.40;;;10.30;;
12129;SDS011;6128;59.340;18.040;2022-10-16T00:25:30;11.53;;;10.53;;
12129;SDS011;6128;59.340;18.040;2022-10-16T00:28:00;11.37;;;10.30;;
12129;SDS011;6128;59.340;18.040;2022-10-16T00:30:27;10.63;;;9.70;;
12129;SDS011;6128;59.340;18.040;2022-10-16T00:32:54;10.37;;;9.43;;
12129;SDS011;6128;59.340;18.040;2022-10-16T00:35:21;11.37;;;10.40;;
12129;SDS011;6128;59.340;18.040;2022-10-16T00:37:48;10.67;;;9.77;;
12129;SDS011;6128;59.340;18.040;2022-10-16T00:40:15;10.53;;;9.63;;
12129;SDS011;6128;59.340;18.040;2022-10-16T00:42:43;10.03;;;9.17;;
12129;SDS011;6128;59.340;18.040;2022-10-16T00:45:11;10.70;;;9.70;;
12129;SDS011;6128;59.340;18.040;2022-10-16T00:47:39;9.80;;;8.87;;
12129;SDS011;6128;59.340;18.040;2022-10-16T00:50:10;10.00;;;9.17;;
12129;SDS011;6128;59.340;18.040;2022-10-16T00:52:44;11.03;;;10.13;;
12129;SDS011;6128;59.340;18.040;2022-10-16T00:55:14;10.67;;;9.77;;
12129;SDS011;6128;59.340;18.040;2022-10-16T00:57:42;10.67;;;9.70;;
12129;SDS011;6128;59.340;18.040;2022-10-16T01:00:14;9.90;;;9.10;;
12129;SDS011;6128;59.340;18.040;2022-10-16T01:02:43;10.43;;;9.50;;
12129;SDS011;6128;59.340;18.040;2022-10-16T01:05:10;10.00;;;9.10;;
12129;SDS011;6128;59.340;18.040;2022-10-16T01:07:41;10.90;;;9.93;;
12129;SDS011;6128;59.340;18.040;2022-10-16T01:10:17;10.43;;;9.50;;
12129;SDS011;6128;59.340;18.040;2022-10-16T01:12:54;10.90;;;9.90;;
12129;SDS011;6128;59.340;18.040;2022-10-16T01:15:29;12.30;;;11.10;;
12129;SDS011;6128;59.340;18.040;2022-10-16T01:18:00;11.13;;;10.03;;
12129;SDS011;6128;59.340;18.040;2022-10-16T01:20:33;11.87;;;10.77;;
12129;SDS011;6128;59.340;18.040;2022-10-16T01:23:07;11.33;;;10.33;;
12129;SDS011;6128;59.340;18.040;2022-10-16T01:25:55;11.80;;;10.80;;
12129;SDS011;6128;59.340;18.040;2022-10-16T01:28:36;11.20;;;10.20;;
12129;SDS011;6128;59.340;18.040;2022-10-16T01:31:08;11.53;;;10.63;;
12129;SDS011;6128;59.340;18.040;2022-10-16T01:33:38;10.33;;;9.43;;
12129;SDS011;6128;59.340;18.040;2022-10-16T01:36:09;11.83;;;10.73;;
12129;SDS011;6128;59.340;18.040;2022-10-16T01:38:39;10.90;;;9.90;;
12129;SDS011;6128;59.340;18.040;2022-10-16T01:41:08;11.37;;;10.47;;
12129;SDS011;6128;59.340;18.040;2022-10-16T01:43:40;11.47;;;10.40;;
12129;SDS011;6128;59.340;18.040;2022-10-16T01:46:11;9.67;;;8.77;;
12129;SDS011;6128;59.340;18.040;2022-10-16T01:48:42;10.00;;;9.20;;
12129;SDS011;6128;59.340;18.040;2022-10-16T01:51:10;10.00;;;9.10;;
12129;SDS011;6128;59.340;18.040;2022-10-16T01:53:39;9.50;;;8.70;;
12129;SDS011;6128;59.340;18.040;2022-10-16T01:56:08;10.83;;;9.73;;
12129;SDS011;6128;59.340;18.040;2022-10-16T01:58:37;9.67;;;8.87;;
12129;SDS011;6128;59.340;18.040;2022-10-16T02:01:09;9.10;;;8.30;;
12129;SDS011;6128;59.340;18.040;2022-10-16T02:03:39;10.10;;;9.20;;
12129;SDS011;6128;59.340;18.040;2022-10-16T02:06:09;9.80;;;8.63;;
12129;SDS011;6128;59.340;18.040;2022-10-16T02:08:36;9.60;;;8.70;;
12129;SDS011;6128;59.340;18.040;2022-10-16T02:11:05;10.17;;;9.27;;
12129;SDS011;6128;59.340;18.040;2022-10-16T02:13:34;10.00;;;9.10;;
12129;SDS011;6128;59.340;18.040;2022-10-16T02:16:06;8.97;;;8.17;;
12129;SDS011;6128;59.340;18.040;2022-10-16T02:18:35;9.37;;;8.57;;
12129;SDS011;6128;59.340;18.040;2022-10-16T02:21:04;10.33;;;9.53;;
12129;SDS011;6128;59.340;18.040;2022-10-16T02:23:40;9.93;;;9.13;;
12129;SDS011;6128;59.340;18.040;2022-10-16T02:26:16;10.00;;;9.07;;
12129;SDS011;6128;59.340;18.040;2022-10-16T02:28:51;9.97;;;9.07;;
12129;SDS011;6128;59.340;18.040;2022-10-16T02:31:24;10.27;;;9.27;;
12129;SDS011;6128;59.340;18.040;2022-10-16T02:33:55;9.87;;;8.93;;
12129;SDS011;6128;59.340;18.040;2022-10-16T02:36:25;9.87;;;8.90;;
12129;SDS011;6128;59.340;18.040;2022-10-16T02:38:52;10.30;;;9.50;;
12129;SDS011;6128;59.340;18.040;2022-10-16T02:41:20;10.27;;;9.47;;
12129;SDS011;6128;59.340;18.040;2022-10-16T02:43:48;9.57;;;8.77;;
12129;SDS011;6128;59.340;18.040;2022-10-16T02:46:15;9.80;;;9.07;;
12129;SDS011;6128;59.340;18.040;2022-10-16T02:48:45;9.30;;;8.60;;
12129;SDS011;6128;59.340;18.040;2022-10-16T02:51:12;10.53;;;9.47;;
12129;SDS011;6128;59.340;18.040;2022-10-16T02:53:39;8.53;;;7.83;;
12129;SDS011;6128;59.340;18.040;2022-10-16T02:56:06;8.20;;;7.50;;
12129;SDS011;6128;59.340;18.040;2022-10-16T02:58:33;8.53;;;7.73;;
12129;SDS011;6128;59.340;18.040;2022-10-16T03:01:00;8.57;;;7.73;;
12129;SDS011;6128;59.340;18.040;2022-10-16T03:03:27;8.27;;;7.37;;
12129;SDS011;6128;59.340;18.040;2022-10-16T03:05:56;8.57;;;7.43;;
12129;SDS011;6128;59.340;18.040;2022-10-16T03:08:23;8.53;;;7.83;;
12129;SDS011;6128;59.340;18.040;2022-10-16T03:10:50;8.40;;;7.60;;
12129;SDS011;6128;59.340;18.040;2022-10-16T03:13:17;8.23;;;7.53;;
12129;SDS011;6128;59.340;18.040;2022-10-16T03:15:46;8.00;;;7.20;;
12129;SDS011;6128;59.340;18.040;2022-10-16T03:18:13;8.00;;;7.20;;
12129;SDS011;6128;59.340;18.040;2022-10-16T03:20:42;7.23;;;6.63;;
12129;SDS011;6128;59.340;18.040;2022-10-16T03:23:10;7.63;;;6.93;;
12129;SDS011;6128;59.340;18.040;2022-10-16T03:25:37;8.10;;;7.43;;
12129;SDS011;6128;59.340;18.040;2022-10-16T03:28:04;7.97;;;7.20;;
12129;SDS011;6128;59.340;18.040;2022-10-16T03:30:31;8.33;;;7.40;;
12129;SDS011;6128;59.340;18.040;2022-10-16T03:32:59;7.67;;;7.00;;
12129;SDS011;6128;59.340;18.040;2022-10-16T03:35:26;7.87;;;7.27;;
12129;SDS011;6128;59.340;18.040;2022-10-16T03:37:53;8.13;;;7.27;;
12129;SDS011;6128;59.340;18.040;2022-10-16T03:40:21;7.33;;;6.63;;
12129;SDS011;6128;59.340;18.040;2022-10-16T03:42:48;8.00;;;7.30;;
12129;SDS011;6128;59.340;18.040;2022-10-16T03:45:15;7.03;;;6.53;;
12129;SDS011;6128;59.340;18.040;2022-10-16T03:47:42;7.87;;;7.27;;
12129;SDS011;6128;59.340;18.040;2022-10-16T03:50:09;8.00;;;7.30;;
12129;SDS011;6128;59.340;18.040;2022-10-16T03:52:36;7.53;;;6.80;;
12129;SDS011;6128;59.340;18.040;2022-10-16T03:55:04;7.50;;;6.83;;
12129;SDS011;6128;59.340;18.040;2022-10-16T03:57:33;7.13;;;6.53;;
12129;SDS011;6128;59.340;18.040;2022-10-16T04:00:00;7.97;;;7.23;;
12129;SDS011;6128;59.340;18.040;2022-10-16T04:02:27;7.23;;;6.63;;
12129;SDS011;6128;59.340;18.040;2022-10-16T04:04:54;7.60;;;6.90;;
12129;SDS011;6128;59.340;18.040;2022-10-16T04:07:21;7.97;;;7.27;;
12129;SDS011;6128;59.340;18.040;2022-10-16T04:09:48;6.97;;;6.37;;
12129;SDS011;6128;59.340;18.040;2022-10-16T04:12:17;6.37;;;5.70;;
12129;SDS011;6128;59.340;18.040;2022-10-16T04:14:45;5.80;;;5.30;;
12129;SDS011;6128;59.340;18.040;2022-10-16T04:17:12;6.97;;;6.37;;
12129;SDS011;6128;59.340;18.040;2022-10-16T04:19:39;7.00;;;6.40;;
12129;SDS011;6128;59.340;18.040;2022-10-16T04:22:06;6.80;;;6.17;;
12129;SDS011;6128;59.340;18.040;2022-10-16T04:24:33;6.50;;;5.90;;
12129;SDS011;6128;59.340;18.040;2022-10-16T04:27:01;6.20;;;5.70;;
12129;SDS011;6128;59.340;18.040;2022-10-16T04:29:28;6.53;;;6.03;;
12129;SDS011;6128;59.340;18.040;2022-10-16T04:31:56;5.83;;;5.43;;
12129;SDS011;6128;59.340;18.040;2022-10-16T04:34:23;6.10;;;5.57;;
12129;SDS011;6128;59.340;18.040;2022-10-16T04:36:50;5.97;;;5.37;;
12129;SDS011;6128;59.340;18.040;2022-10-16T04:39:17;5.57;;;5.17;;
12129;SDS011;6128;59.340;18.040;2022-10-16T04:41:45;5.80;;;5.20;;
12129;SDS011;6128;59.340;18.040;2022-10-16T04:44:12;6.00;;;5.50;;
12129;SDS011;6128;59.340;18.040;2022-10-16T04:46:39;5.87;;;5.37;;
12129;SDS011;6128;59.340;18.040;2022-10-16T04:49:07;5.70;;;5.20;;
12129;SDS011;6128;59.340;18.040;2022-10-16T04:51:34;5.60;;;5.10;;
12129;SDS011;6128;59.340;18.040;2022-10-16T04:54:02;4.80;;;4.43;;
12129;SDS011;6128;59.340;18.040;2022-10-16T04:56:29;4.83;;;4.47;;
12129;SDS011;6128;59.340;18.040;2022-10-16T04:58:56;4.73;;;4.33;;
12129;SDS011;6128;59.340;18.040;2022-10-16T05:01:23;5.10;;;4.70;;
12129;SDS011;6128;59.340;18.040;2022-10-16T05:03:50;4.90;;;4.50;;
12129;SDS011;6128;59.340;18.040;2022-10-16T05:06:18;4.83;;;4.40;;
12129;SDS011;6128;59.340;18.040;2022-10-16T05:08:48;5.17;;;4.67;;
12129;SDS011;6128;59.340;18.040;2022-10-16T05:11:17;4.40;;;4.10;;
12129;SDS011;6128;59.340;18.040;2022-10-16T05:13:46;4.40;;;4.00;;
12129;SDS011;6128;59.340;18.040;2022-10-16T05:16:13;4.63;;;4.17;;
12129;SDS011;6128;59.340;18.040;2022-10-16T05:18:40;6.23;;;4.90;;
12129;SDS011;6128;59.340;18.040;2022-10-16T05:21:07;5.10;;;4.60;;
12129;SDS011;6128;59.340;18.040;2022-10-16T05:23:35;5.47;;;5.07;;
12129;SDS011;6128;59.340;18.040;2022-10-16T05:26:03;5.20;;;4.80;;
12129;SDS011;6128;59.340;18.040;2022-10-16T05:28:30;5.57;;;5.17;;
12129;SDS011;6128;59.340;18.040;2022-10-16T05:30:57;5.70;;;5.20;;
12129;SDS011;6128;59.340;18.040;2022-10-16T05:33:25;5.60;;;4.97;;
12129;SDS011;6128;59.340;18.040;2022-10-16T05:35:52;6.03;;;5.53;;
12129;SDS011;6128;59.340;18.040;2022-10-16T05:38:19;5.77;;;5.27;;
12129;SDS011;6128;59.340;18.040;2022-10-16T05:40:51;5.80;;;5.30;;
12129;SDS011;6128;59.340;18.040;2022-10-16T05:43:19;5.80;;;5.37;;
12129;SDS011;6128;59.340;18.040;2022-10-16T05:45:53;6.00;;;5.50;;
12129;SDS011;6128;59.340;18.040;2022-10-16T05:48:20;6.03;;;5.43;;
12129;SDS011;6128;59.340;18.040;2022-10-16T05:50:48;7.17;;;6.57;;
12129;SDS011;6128;59.340;18.040;2022-10-16T05:53:22;7.20;;;6.50;;
12129;SDS011;6128;59.340;18.040;2022-10-16T05:55:55;6.87;;;6.27;;
12129;SDS011;6128;59.340;18.040;2022-10-16T05:58:23;6.90;;;6.30;;
12129;SDS011;6128;59.340;18.040;2022-10-16T06:00:54;7.10;;;6.40;;
12129;SDS011;6128;59.340;18.040;2022-10-16T06:03:22;7.00;;;6.40;;
12129;SDS011;6128;59.340;18.040;2022-10-16T06:05:49;7.70;;;6.63;;
12129;SDS011;6128;59.340;18.040;2022-10-16T06:08:16;7.70;;;6.97;;
12129;SDS011;6128;59.340;18.040;2022-10-16T06:10:44;7.70;;;7.10;;
12129;SDS011;6128;59.340;18.040;2022-10-16T06:13:13;8.20;;;7.50;;
12129;SDS011;6128;59.340;18.040;2022-10-16T06:15:40;8.67;;;7.87;;
12129;SDS011;6128;59.340;18.040;2022-10-16T06:18:08;8.80;;;8.00;;
12129;SDS011;6128;59.340;18.040;2022-10-16T06:20:36;8.93;;;7.93;;
12129;SDS011;6128;59.340;18.040;2022-10-16T06:23:03;9.03;;;8.33;;
12129;SDS011;6128;59.340;18.040;2022-10-16T06:25:30;9.60;;;8.83;;
12129;SDS011;6128;59.340;18.040;2022-10-16T06:27:58;10.00;;;9.10;;
12129;SDS011;6128;59.340;18.040;2022-10-16T06:30:26;9.50;;;8.80;;
12129;SDS011;6128;59.340;18.040;2022-10-16T06:32:53;9.70;;;8.83;;
12129;SDS011;6128;59.340;18.040;2022-10-16T06:35:20;10.33;;;9.43;;
12129;SDS011;6128;59.340;18.040;2022-10-16T06:37:47;10.57;;;9.60;;
12129;SDS011;6128;59.340;18.040;2022-10-16T06:40:14;10.60;;;9.50;;
12129;SDS011;6128;59.340;18.040;2022-10-16T06:42:41;10.20;;;9.23;;
12129;SDS011;6128;59.340;18.040;2022-10-16T06:45:09;11.03;;;10.10;;
12129;SDS011;6128;59.340;18.040;2022-10-16T06:47:40;10.37;;;9.43;;
12129;SDS011;6128;59.340;18.040;2022-10-16T06:50:07;10.90;;;9.90;;
12129;SDS011;6128;59.340;18.040;2022-10-16T06:52:34;11.20;;;9.67;;
12129;SDS011;6128;59.340;18.040;2022-10-16T06:55:01;10.43;;;9.53;;
12129;SDS011;6128;59.340;18.040;2022-10-16T06:57:29;11.47;;;10.47;;
12129;SDS011;6128;59.340;18.040;2022-10-16T06:59:56;11.23;;;10.30;;
12129;SDS011;6128;59.340;18.040;2022-10-16T07:02:23;11.27;;;10.37;;
12129;SDS011;6128;59.340;18.040;2022-10-16T07:04:51;10.73;;;9.77;;
12129;SDS011;6128;59.340;18.040;2022-10-16T07:07:18;10.97;;;10.00;;
12129;SDS011;6128;59.340;18.040;2022-10-16T07:09:45;10.90;;;9.77;;
12129;SDS011;6128;59.340;18.040;2022-10-16T07:12:12;11.23;;;10.23;;
12129;SDS011;6128;59.340;18.040;2022-10-16T07:14:39;11.00;;;10.10;;
12129;SDS011;6128;59.340;18.040;2022-10-16T07:17:06;11.00;;;10.00;;
12129;SDS011;6128;59.340;18.040;2022-10-16T07:19:33;9.67;;;8.83;;
12129;SDS011;6128;59.340;18.040;2022-10-16T07:22:02;9.90;;;8.90;;
12129;SDS011;6128;59.340;18.040;2022-10-16T07:24:29;9.10;;;8.30;;
12129;SDS011;6128;59.340;18.040;2022-10-16T07:26:57;8.87;;;8.07;;
12129;SDS011;6128;59.340;18.040;2022-10-16T07:29:24;9.37;;;8.00;;
12129;SDS011;6128;59.340;18.040;2022-10-16T07:31:51;8.67;;;7.87;;
12129;SDS011;6128;59.340;18.040;2022-10-16T07:34:18;7.53;;;6.93;;
12129;SDS011;6128;59.340;18.040;2022-10-16T07:36:47;7.37;;;6.77;;
12129;SDS011;6128;59.340;18.040;2022-10-16T07:39:16;7.67;;;6.97;;
12129;SDS011;6128;59.340;18.040;2022-10-16T07:41:43;7.87;;;7.03;;
12129;SDS011;6128;59.340;18.040;2022-10-16T07:44:10;7.43;;;6.83;;
12129;SDS011;6128;59.340;18.040;2022-10-16T07:46:37;7.30;;;6.50;;
12129;SDS011;6128;59.340;18.040;2022-10-16T07:49:04;6.47;;;5.97;;
12129;SDS011;6128;59.340;18.040;2022-10-16T07:51:31;6.70;;;6.10;;
12129;SDS011;6128;59.340;18.040;2022-10-16T07:53:58;5.60;;;5.13;;
12129;SDS011;6128;59.340;18.040;2022-10-16T07:56:30;5.90;;;5.40;;
12129;SDS011;6128;59.340;18.040;2022-10-16T07:58:57;5.03;;;4.63;;
12129;SDS011;6128;59.340;18.040;2022-10-16T08:01:24;5.00;;;4.63;;
12129;SDS011;6128;59.340;18.040;2022-10-16T08:03:52;5.37;;;4.87;;
12129;SDS011;6128;59.340;18.040;2022-10-16T08:06:19;6.80;;;5.60;;
12129;SDS011;6128;59.340;18.040;2022-10-16T08:08:47;5.33;;;4.83;;
12129;SDS011;6128;59.340;18.040;2022-10-16T08:11:14;4.97;;;4.47;;
12129;SDS011;6128;59.340;18.040;2022-10-16T08:13:43;5.53;;;5.03;;
12129;SDS011;6128;59.340;18.040;2022-10-16T08:16:10;4.27;;;3.87;;
12129;SDS011;6128;59.340;18.040;2022-10-16T08:18:38;5.17;;;4.03;;
12129;SDS011;6128;59.340;18.040;2022-10-16T08:21:06;4.40;;;4.00;;
12129;SDS011;6128;59.340;18.040;2022-10-16T08:23:33;4.03;;;3.70;;
12129;SDS011;6128;59.340;18.040;2022-10-16T08:26:04;4.00;;;3.60;;
12129;SDS011;6128;59.340;18.040;2022-10-16T08:28:33;4.00;;;3.60;;
12129;SDS011;6128;59.340;18.040;2022-10-16T08:31:07;3.80;;;3.50;;
12129;SDS011;6128;59.340;18.040;2022-10-16T08:33:35;4.27;;;3.63;;
12129;SDS011;6128;59.340;18.040;2022-10-16T08:36:02;3.30;;;3.10;;
12129;SDS011;6128;59.340;18.040;2022-10-16T08:38:30;3.37;;;3.07;;
12129;SDS011;6128;59.340;18.040;2022-10-16T08:40:59;3.63;;;3.37;;
12129;SDS011;6128;59.340;18.040;2022-10-16T08:43:40;4.13;;;3.37;;
12129;SDS011;6128;59.340;18.040;2022-10-16T08:46:28;3.23;;;2.93;;
12129;SDS011;6128;59.340;18.040;2022-10-16T08:49:05;3.30;;;3.10;;
12129;SDS011;6128;59.340;18.040;2022-10-16T08:51:37;4.00;;;3.00;;
12129;SDS011;6128;59.340;18.040;2022-10-16T08:54:05;4.37;;;2.90;;
12129;SDS011;6128;59.340;18.040;2022-10-16T08:56:42;4.07;;;3.17;;
12129;SDS011;6128;59.340;18.040;2022-10-16T08:59:09;3.47;;;2.97;;
12129;SDS011;6128;59.340;18.040;2022-10-16T09:01:40;3.83;;;3.00;;
12129;SDS011;6128;59.340;18.040;2022-10-16T09:07:20;3.23;;;2.93;;
12129;SDS011;6128;59.340;18.040;2022-10-16T09:10:00;4.53;;;2.90;;
12129;SDS011;6128;59.340;18.040;2022-10-16T09:12:40;5.40;;;2.97;;
12129;SDS011;6128;59.340;18.040;2022-10-16T09:15:17;2.70;;;2.50;;
12129;SDS011;6128;59.340;18.040;2022-10-16T09:17:54;3.07;;;2.77;;
12129;SDS011;6128;59.340;18.040;2022-10-16T09:20:36;3.20;;;2.70;;
12129;SDS011;6128;59.340;18.040;2022-10-16T09:23:18;3.03;;;2.70;;
12129;SDS011;6128;59.340;18.040;2022-10-16T09:25:49;3.10;;;2.40;;
12129;SDS011;6128;59.340;18.040;2022-10-16T09:28:16;3.10;;;2.57;;
12129;SDS011;6128;59.340;18.040;2022-10-16T09:30:44;3.83;;;2.50;;
12129;SDS011;6128;59.340;18.040;2022-10-16T09:33:15;2.83;;;2.47;;
12129;SDS011;6128;59.340;18.040;2022-10-16T09:35:44;4.10;;;2.17;;
12129;SDS011;6128;59.340;18.040;2022-10-16T09:38:24;3.33;;;2.13;;
12129;SDS011;6128;59.340;18.040;2022-10-16T09:40:53;2.27;;;1.93;;
12129;SDS011;6128;59.340;18.040;2022-10-16T09:43:22;2.70;;;2.30;;
12129;SDS011;6128;59.340;18.040;2022-10-16T09:45:53;2.83;;;2.53;;
12129;SDS011;6128;59.340;18.040;2022-10-16T09:48:22;4.83;;;2.50;;
12129;SDS011;6128;59.340;18.040;2022-10-16T09:50:55;4.53;;;2.10;;
12129;SDS011;6128;59.340;18.040;2022-10-16T09:53:23;3.10;;;2.30;;
12129;SDS011;6128;59.340;18.040;2022-10-16T09:55:52;2.70;;;2.50;;
12129;SDS011;6128;59.340;18.040;2022-10-16T09:58:21;2.60;;;2.23;;
12129;SDS011;6128;59.340;18.040;2022-10-16T10:00:49;3.23;;;2.30;;
12129;SDS011;6128;59.340;18.040;2022-10-16T10:03:33;2.40;;;2.13;;
12129;SDS011;6128;59.340;18.040;2022-10-16T10:06:05;3.10;;;2.20;;
12129;SDS011;6128;59.340;18.040;2022-10-16T10:08:57;4.20;;;2.23;;
12129;SDS011;6128;59.340;18.040;2022-10-16T10:11:42;2.00;;;1.77;;
12129;SDS011;6128;59.340;18.040;2022-10-16T10:14:18;3.83;;;2.17;;
12129;SDS011;6128;59.340;18.040;2022-10-16T10:16:51;3.33;;;2.70;;
12129;SDS011;6128;59.340;18.040;2022-10-16T10:19:28;2.93;;;2.03;;
12129;SDS011;6128;59.340;18.040;2022-10-16T10:21:56;2.97;;;1.93;;
12129;SDS011;6128;59.340;18.040;2022-10-16T10:24:23;3.27;;;1.90;;
12129;SDS011;6128;59.340;18.040;2022-10-16T10:26:51;3.40;;;1.73;;
12129;SDS011;6128;59.340;18.040;2022-10-16T10:29:27;2.90;;;2.00;;
12129;SDS011;6128;59.340;18.040;2022-10-16T10:32:06;2.37;;;2.00;;
12129;SDS011;6128;59.340;18.040;2022-10-16T10:34:53;3.23;;;2.20;;
12129;SDS011;6128;59.340;18.040;2022-10-16T10:37:34;2.67;;;1.70;;
12129;SDS011;6128;59.340;18.040;2022-10-16T10:40:15;2.93;;;2.07;;
12129;SDS011;6128;59.340;18.040;2022-10-16T10:42:51;2.83;;;1.90;;
12129;SDS011;6128;59.340;18.040;2022-10-16T10:45:26;3.77;;;1.90;;
12129;SDS011;6128;59.340;18.040;2022-10-16T10:48:06;3.57;;;2.10;;
12129;SDS011;6128;59.340;18.040;2022-10-16T10:50:48;2.13;;;1.70;;
12129;SDS011;6128;59.340;18.040;2022-10-16T10:53:22;2.63;;;2.03;;
12129;SDS011;6128;59.340;18.040;2022-10-16T10:56:00;2.07;;;1.87;;
12129;SDS011;6128;59.340;18.040;2022-10-16T10:58:42;2.83;;;2.03;;
12129;SDS011;6128;59.340;18.040;2022-10-16T11:01:37;2.87;;;2.17;;
12129;SDS011;6128;59.340;18.040;2022-10-16T11:04:20;5.97;;;2.40;;
12129;SDS011;6128;59.340;18.040;2022-10-16T11:07:10;2.20;;;1.80;;
12129;SDS011;6128;59.340;18.040;2022-10-16T11:09:44;5.93;;;2.20;;
12129;SDS011;6128;59.340;18.040;2022-10-16T11:12:17;4.87;;;2.77;;
12129;SDS011;6128;59.340;18.040;2022-10-16T11:14:47;2.70;;;1.90;;
12129;SDS011;6128;59.340;18.040;2022-10-16T11:17:18;2.23;;;1.57;;
12129;SDS011;6128;59.340;18.040;2022-10-16T11:19:51;4.93;;;1.43;;
12129;SDS011;6128;59.340;18.040;2022-10-16T11:22:25;2.17;;;1.50;;
12129;SDS011;6128;59.340;18.040;2022-10-16T11:24:59;2.40;;;1.57;;
12129;SDS011;6128;59.340;18.040;2022-10-16T11:27:34;5.03;;;1.90;;
12129;SDS011;6128;59.340;18.040;2022-10-16T11:30:05;2.00;;;1.47;;
12129;SDS011;6128;59.340;18.040;2022-10-16T11:32:45;2.97;;;1.80;;
12129;SDS011;6128;59.340;18.040;2022-10-16T11:35:24;3.20;;;1.60;;
12129;SDS011;6128;59.340;18.040;2022-10-16T11:38:00;2.47;;;1.77;;
12129;SDS011;6128;59.340;18.040;2022-10-16T11:40:33;2.57;;;1.40;;
12129;SDS011;6128;59.340;18.040;2022-10-16T11:43:22;5.77;;;2.10;;
12129;SDS011;6128;59.340;18.040;2022-10-16T11:45:54;3.50;;;1.60;;
12129;SDS011;6128;59.340;18.040;2022-10-16T11:48:26;3.77;;;1.87;;
12129;SDS011;6128;59.340;18.040;2022-10-16T11:50:59;3.60;;;1.57;;
12129;SDS011;6128;59.340;18.040;2022-10-16T11:53:44;2.30;;;1.43;;
12129;SDS011;6128;59.340;18.040;2022-10-16T11:56:17;3.53;;;1.70;;
12129;SDS011;6128;59.340;18.040;2022-10-16T11:58:50;3.70;;;1.70;;
12129;SDS011;6128;59.340;18.040;2022-10-16T12:01:26;4.10;;;2.23;;
12129;SDS011;6128;59.340;18.040;2022-10-16T12:04:01;4.80;;;1.73;;
12129;SDS011;6128;59.340;18.040;2022-10-16T12:06:41;3.03;;;1.73;;
12129;SDS011;6128;59.340;18.040;2022-10-16T12:09:16;2.57;;;1.37;;
12129;SDS011;6128;59.340;18.040;2022-10-16T12:11:48;3.80;;;1.90;;
12129;SDS011;6128;59.340;18.040;2022-10-16T12:14:22;3.47;;;1.73;;
12129;SDS011;6128;59.340;18.040;2022-10-16T12:17:02;5.60;;;2.00;;
12129;SDS011;6128;59.340;18.040;2022-10-16T12:19:32;4.87;;;2.10;;
12129;SDS011;6128;59.340;18.040;2022-10-16T12:22:00;3.90;;;2.10;;
12129;SDS011;6128;59.340;18.040;2022-10-16T12:24:33;4.80;;;2.30;;
12129;SDS011;6128;59.340;18.040;2022-10-16T12:27:02;2.93;;;1.53;;
12129;SDS011;6128;59.340;18.040;2022-10-16T12:29:33;3.97;;;2.13;;
12129;SDS011;6128;59.340;18.040;2022-10-16T12:32:03;2.47;;;1.60;;
12129;SDS011;6128;59.340;18.040;2022-10-16T12:34:34;4.10;;;1.80;;
12129;SDS011;6128;59.340;18.040;2022-10-16T12:37:09;3.73;;;1.93;;
12129;SDS011;6128;59.340;18.040;2022-10-16T12:39:40;3.97;;;2.00;;
12129;SDS011;6128;59.340;18.040;2022-10-16T12:42:19;2.07;;;1.57;;
12129;SDS011;6128;59.340;18.040;2022-10-16T12:44:49;2.07;;;1.80;;
12129;SDS011;6128;59.340;18.040;2022-10-16T12:47:19;2.27;;;1.50;;
12129;SDS011;6128;59.340;18.040;2022-10-16T12:49:48;1.93;;;1.40;;
12129;SDS011;6128;59.340;18.040;2022-10-16T12:52:24;2.37;;;1.60;;
12129;SDS011;6128;59.340;18.040;2022-10-16T12:54:57;3.20;;;1.80;;
12129;SDS011;6128;59.340;18.040;2022-10-16T12:57:34;2.37;;;1.40;;
12129;SDS011;6128;59.340;18.040;2022-10-16T13:00:12;1.93;;;1.40;;
12129;SDS011;6128;59.340;18.040;2022-10-16T13:02:53;4.77;;;2.30;;
12129;SDS011;6128;59.340;18.040;2022-10-16T13:05:54;1.77;;;1.57;;
12129;SDS011;6128;59.340;18.040;2022-10-16T13:08:33;3.43;;;1.60;;
12129;SDS011;6128;59.340;18.040;2022-10-16T13:11:12;3.57;;;1.73;;
12129;SDS011;6128;59.340;18.040;2022-10-16T13:13:53;1.97;;;1.33;;
12129;SDS011;6128;59.340;18.040;2022-10-16T13:16:43;3.30;;;1.70;;
12129;SDS011;6128;59.340;18.040;2022-10-16T13:19:18;2.20;;;1.67;;
12129;SDS011;6128;59.340;18.040;2022-10-16T13:21:56;2.90;;;1.43;;
12129;SDS011;6128;59.340;18.040;2022-10-16T13:24:36;2.67;;;1.23;;
12129;SDS011;6128;59.340;18.040;2022-10-16T13:27:17;2.67;;;1.60;;
12129;SDS011;6128;59.340;18.040;2022-10-16T13:29:52;2.50;;;1.50;;
12129;SDS011;6128;59.340;18.040;2022-10-16T13:32:21;1.77;;;1.63;;
12129;SDS011;6128;59.340;18.040;2022-10-16T13:34:48;2.93;;;1.37;;
12129;SDS011;6128;59.340;18.040;2022-10-16T13:37:17;2.87;;;2.00;;
12129;SDS011;6128;59.340;18.040;2022-10-16T13:39:45;3.10;;;1.60;;
12129;SDS011;6128;59.340;18.040;2022-10-16T13:42:13;2.07;;;1.40;;
12129;SDS011;6128;59.340;18.040;2022-10-16T13:44:49;3.13;;;1.70;;
12129;SDS011;6128;59.340;18.040;2022-10-16T13:47:19;3.17;;;1.50;;
12129;SDS011;6128;59.340;18.040;2022-10-16T13:49:58;1.90;;;1.20;;
12129;SDS011;6128;59.340;18.040;2022-10-16T13:52:25;3.43;;;1.47;;
12129;SDS011;6128;59.340;18.040;2022-10-16T13:54:53;3.47;;;1.57;;
12129;SDS011;6128;59.340;18.040;2022-10-16T13:57:22;2.33;;;1.53;;
12129;SDS011;6128;59.340;18.040;2022-10-16T13:59:50;2.83;;;1.60;;
12129;SDS011;6128;59.340;18.040;2022-10-16T14:02:19;2.40;;;1.30;;
12129;SDS011;6128;59.340;18.040;2022-10-16T14:04:51;3.30;;;1.47;;
12129;SDS011;6128;59.340;18.040;2022-10-16T14:07:21;3.63;;;1.40;;
12129;SDS011;6128;59.340;18.040;2022-10-16T14:09:51;1.23;;;1.10;;
12129;SDS011;6128;59.340;18.040;2022-10-16T14:12:19;1.97;;;1.30;;
12129;SDS011;6128;59.340;18.040;2022-10-16T14:14:49;2.67;;;1.17;;
12129;SDS011;6128;59.340;18.040;2022-10-16T14:17:19;2.97;;;1.47;;
12129;SDS011;6128;59.340;18.040;2022-10-16T14:19:49;3.43;;;1.53;;
12129;SDS011;6128;59.340;18.040;2022-10-16T14:22:22;4.03;;;1.40;;
12129;SDS011;6128;59.340;18.040;2022-10-16T14:24:56;2.57;;;1.77;;
12129;SDS011;6128;59.340;18.040;2022-10-16T14:27:26;3.20;;;1.20;;
12129;SDS011;6128;59.340;18.040;2022-10-16T14:30:17;3.10;;;1.57;;
12129;SDS011;6128;59.340;18.040;2022-10-16T14:32:53;5.10;;;1.83;;
12129;SDS011;6128;59.340;18.040;2022-10-16T14:35:22;2.90;;;1.37;;
12129;SDS011;6128;59.340;18.040;2022-10-16T14:37:51;3.03;;;1.70;;
12129;SDS011;6128;59.340;18.040;2022-10-16T14:40:19;4.33;;;1.43;;
12129;SDS011;6128;59.340;18.040;2022-10-16T14:42:48;2.63;;;1.60;;
12129;SDS011;6128;59.340;18.040;2022-10-16T14:45:19;2.57;;;1.40;;
12129;SDS011;6128;59.340;18.040;2022-10-16T14:47:49;2.70;;;1.40;;
12129;SDS011;6128;59.340;18.040;2022-10-16T14:50:18;2.50;;;1.47;;
12129;SDS011;6128;59.340;18.040;2022-10-16T14:52:45;4.07;;;1.40;;
12129;SDS011;6128;59.340;18.040;2022-10-16T14:55:12;3.57;;;1.73;;
12129;SDS011;6128;59.340;18.040;2022-10-16T14:57:40;3.57;;;1.40;;
12129;SDS011;6128;59.340;18.040;2022-10-16T15:00:10;1.87;;;1.23;;
12129;SDS011;6128;59.340;18.040;2022-10-16T15:02:44;2.13;;;1.47;;
12129;SDS011;6128;59.340;18.040;2022-10-16T15:05:12;3.30;;;1.90;;
12129;SDS011;6128;59.340;18.040;2022-10-16T15:07:42;3.93;;;1.60;;